Fairbanks, Indiana
Current Conditions -  °F | °C
As of 3:35 AM on Monday 26 Jan 2015 (Local Time) from KRSV Reporting Station
Overcast Overcast  
Wind Chill: 18°   Ceiling: 1800
Heat Index: 29°   Visibility: 10mi
Dew Point: 25°   Wind: 15mph
Humidity: 84%   Direction: 350°N
Pressure: 29.95"   Gusts: 20mph
Location:  39.22°N, 87.52°W
Report Text: KRSV 260835Z AUTO 35013G17KT 10SM OVC018 M02/M04 A2995 RMK AO2 T10171040
Loading
Personal Weather Stations






























Interactive Weather Map New forecast layout! Learn more

10-Day Weather Forecast

Advertisements
Track Severe Weather on mobile